createdAt,value
2024-03-29T00:02:08.076Z,11.04
2024-03-29T00:04:46.002Z,11.03
2024-03-29T00:07:23.610Z,11.04
2024-03-29T00:10:02.192Z,11.05
2024-03-29T00:12:40.060Z,11.03
2024-03-29T00:15:17.576Z,11.01
2024-03-29T00:17:55.848Z,10.97
2024-03-29T00:20:25.460Z,10.96
2024-03-29T00:23:01.606Z,10.91
2024-03-29T00:25:39.422Z,10.90
2024-03-29T00:28:17.403Z,10.94
2024-03-29T00:30:54.870Z,10.92
2024-03-29T00:33:33.143Z,10.92
2024-03-29T00:36:13.113Z,10.90
2024-03-29T00:38:51.196Z,10.85
2024-03-29T00:41:28.993Z,10.81
2024-03-29T00:44:07.434Z,10.79
2024-03-29T00:46:45.735Z,10.76
2024-03-29T00:49:23.857Z,10.72
2024-03-29T00:52:01.403Z,10.69
2024-03-29T00:54:39.716Z,10.62
2024-03-29T00:57:18.108Z,10.65
2024-03-29T00:59:57.879Z,10.65
2024-03-29T01:02:35.632Z,10.58
2024-03-29T01:05:06.978Z,10.56
2024-03-29T01:07:43.228Z,10.54
2024-03-29T01:10:23.182Z,10.51
2024-03-29T01:13:00.389Z,10.51
2024-03-29T01:15:37.993Z,10.47
2024-03-29T01:18:15.544Z,10.44
2024-03-29T01:20:53.786Z,10.39
2024-03-29T01:23:31.247Z,10.34
2024-03-29T01:26:13.722Z,10.29
2024-03-29T01:28:51.341Z,10.27
2024-03-29T01:31:29.662Z,10.21
2024-03-29T01:34:07.780Z,10.15
2024-03-29T01:36:45.820Z,10.12
2024-03-29T01:39:34.249Z,10.04
2024-03-29T01:42:13.120Z,9.98
2024-03-29T01:44:51.253Z,9.91
2024-03-29T01:47:29.853Z,9.92
2024-03-29T01:50:08.382Z,9.89
2024-03-29T01:52:46.723Z,9.87
2024-03-29T01:55:24.471Z,9.87
2024-03-29T01:58:02.925Z,9.88
2024-03-29T02:00:51.455Z,9.88
2024-03-29T02:03:29.538Z,9.90
2024-03-29T02:06:07.966Z,9.90
2024-03-29T02:08:45.751Z,9.91
2024-03-29T02:11:23.694Z,9.91
2024-03-29T02:13:58.338Z,9.94
2024-03-29T02:16:28.393Z,9.98
2024-03-29T02:19:05.680Z,10.03
2024-03-29T02:21:49.299Z,10.04
2024-03-29T02:24:25.378Z,10.03
2024-03-29T02:27:05.889Z,10.03
2024-03-29T02:29:43.658Z,10.04
2024-03-29T02:32:22.001Z,10.04
2024-03-29T02:35:02.367Z,10.05
2024-03-29T02:37:42.522Z,10.04
2024-03-29T02:40:21.319Z,10.03
2024-03-29T02:42:59.254Z,10.02
2024-03-29T02:45:37.670Z,9.96
2024-03-29T02:48:16.087Z,10.03
2024-03-29T02:50:53.911Z,10.02
2024-03-29T02:53:31.913Z,10.01
2024-03-29T02:56:11.114Z,10.02
2024-03-29T02:58:48.939Z,10.03
2024-03-29T03:01:26.630Z,10.08
2024-03-29T03:04:05.626Z,10.09
2024-03-29T03:06:44.172Z,10.08
2024-03-29T03:09:40.934Z,10.08
2024-03-29T03:12:18.994Z,10.08
2024-03-29T03:14:56.567Z,10.07
2024-03-29T03:17:34.321Z,10.08
2024-03-29T03:20:14.809Z,10.06
2024-03-29T03:22:55.394Z,10.03
2024-03-29T03:25:32.968Z,10.00
2024-03-29T03:28:13.008Z,9.99
2024-03-29T03:30:50.640Z,9.98
2024-03-29T03:33:28.441Z,9.98
2024-03-29T03:36:06.388Z,9.97
2024-03-29T03:38:44.723Z,9.96
2024-03-29T03:41:22.493Z,9.91
2024-03-29T03:43:51.988Z,9.83
2024-03-29T03:46:27.986Z,9.86
2024-03-29T03:49:05.542Z,9.83
2024-03-29T03:51:43.531Z,9.78
2024-03-29T03:54:21.115Z,9.77
2024-03-29T03:56:58.607Z,9.75
2024-03-29T03:59:35.982Z,9.72
2024-03-29T04:02:14.190Z,9.70
2024-03-29T04:04:54.715Z,9.62
2024-03-29T04:07:31.762Z,9.64
2024-03-29T04:10:10.924Z,9.61
2024-03-29T04:12:48.906Z,9.60
2024-03-29T04:15:26.453Z,9.57
2024-03-29T04:18:05.084Z,9.55
2024-03-29T04:20:42.802Z,9.52
2024-03-29T04:23:12.528Z,9.48
2024-03-29T04:25:54.894Z,9.48
2024-03-29T04:28:29.074Z,9.47
2024-03-29T04:31:07.420Z,9.43
2024-03-29T04:33:44.624Z,9.39
2024-03-29T04:36:21.753Z,9.36
2024-03-29T04:38:58.649Z,9.33
2024-03-29T04:41:38.154Z,9.31
2024-03-29T04:44:25.588Z,9.26
2024-03-29T04:47:02.876Z,9.22
2024-03-29T04:49:40.492Z,9.19
2024-03-29T04:52:18.409Z,9.15
2024-03-29T04:54:56.080Z,9.08
2024-03-29T04:57:33.084Z,9.12
2024-03-29T05:00:11.938Z,9.10
2024-03-29T05:02:49.229Z,9.07
2024-03-29T05:05:26.199Z,9.05
2024-03-29T05:08:07.308Z,8.99
2024-03-29T05:10:47.875Z,8.97
2024-03-29T05:13:25.802Z,8.96
2024-03-29T05:16:03.603Z,8.98
2024-03-29T05:18:33.445Z,9.01
2024-03-29T05:21:10.623Z,9.03
2024-03-29T05:23:48.786Z,9.07
2024-03-29T05:26:25.761Z,9.10
2024-03-29T05:29:05.317Z,9.16
2024-03-29T05:31:44.350Z,9.22
2024-03-29T05:34:21.435Z,9.26
2024-03-29T05:36:59.035Z,9.32
2024-03-29T05:39:36.038Z,9.38
2024-03-29T05:42:13.677Z,9.45
2024-03-29T05:44:51.070Z,9.51
2024-03-29T05:47:28.451Z,9.60
2024-03-29T05:49:58.030Z,9.71
2024-03-29T05:52:31.558Z,9.79
2024-03-29T05:55:10.869Z,9.90
2024-03-29T05:57:49.558Z,10.04
2024-03-29T06:00:26.313Z,10.23
2024-03-29T06:03:06.025Z,10.41
2024-03-29T06:05:44.539Z,10.72
2024-03-29T06:08:22.523Z,11.08
2024-03-29T06:11:00.370Z,11.66
2024-03-29T06:13:53.936Z,12.52
2024-03-29T06:17:23.182Z,13.69
2024-03-29T06:20:03.209Z,14.85
2024-03-29T06:22:32.733Z,15.34
2024-03-29T06:25:10.580Z,15.95
2024-03-29T06:27:49.341Z,16.17
2024-03-29T06:30:25.906Z,16.35
2024-03-29T06:33:04.390Z,16.42
2024-03-29T06:35:40.875Z,16.52
2024-03-29T06:38:17.685Z,16.87
2024-03-29T06:40:55.113Z,16.94
2024-03-29T06:43:31.775Z,16.70
2024-03-29T06:46:09.121Z,16.75
2024-03-29T06:48:45.649Z,16.98
2024-03-29T06:51:15.429Z,17.02
2024-03-29T06:53:52.925Z,16.96
2024-03-29T06:56:31.124Z,17.11
2024-03-29T06:59:09.325Z,17.30
2024-03-29T07:01:48.763Z,17.31
2024-03-29T07:04:29.295Z,17.24
2024-03-29T07:07:05.933Z,17.18
2024-03-29T07:09:42.611Z,17.22
2024-03-29T07:12:19.715Z,16.98
2024-03-29T07:14:56.416Z,17.06
2024-03-29T07:17:33.742Z,17.09
2024-03-29T07:20:12.988Z,17.21
2024-03-29T07:22:50.177Z,17.41
2024-03-29T07:25:19.541Z,17.50
2024-03-29T07:27:54.308Z,17.65
2024-03-29T07:30:31.105Z,17.47
2024-03-29T07:33:10.845Z,17.55
2024-03-29T07:35:47.952Z,17.83
2024-03-29T07:38:26.322Z,17.97
2024-03-29T07:41:03.754Z,18.23
2024-03-29T07:44:09.521Z,18.26
2024-03-29T07:46:43.276Z,18.84
2024-03-29T07:49:26.593Z,19.01
2024-03-29T07:51:56.778Z,19.15
2024-03-29T07:54:34.116Z,19.29
2024-03-29T07:57:15.864Z,19.32
2024-03-29T07:59:55.132Z,19.50
2024-03-29T08:02:32.200Z,19.49
2024-03-29T08:05:09.929Z,19.61
2024-03-29T08:07:47.109Z,19.42
2024-03-29T08:10:23.912Z,19.29
2024-03-29T08:13:02.183Z,19.38
2024-03-29T08:15:39.641Z,19.41
2024-03-29T08:18:17.556Z,19.34
2024-03-29T08:20:56.359Z,19.50
2024-03-29T08:23:33.541Z,19.85
2024-03-29T08:26:11.585Z,19.90
2024-03-29T08:28:41.657Z,20.09
2024-03-29T08:31:16.741Z,20.04
2024-03-29T08:34:01.494Z,20.22
2024-03-29T08:36:36.844Z,20.22
2024-03-29T08:39:14.415Z,20.22
2024-03-29T08:41:52.275Z,20.40
2024-03-29T08:44:30.254Z,20.42
2024-03-29T08:47:08.386Z,20.52
2024-03-29T08:49:44.942Z,20.57
2024-03-29T08:52:23.575Z,20.49
2024-03-29T08:55:00.428Z,20.25
2024-03-29T08:57:37.909Z,20.37
2024-03-29T09:00:15.757Z,20.43
2024-03-29T09:02:53.223Z,20.34
2024-03-29T09:05:31.155Z,20.57
2024-03-29T09:08:00.681Z,20.88
2024-03-29T09:10:37.372Z,20.95
2024-03-29T09:13:14.702Z,21.04
2024-03-29T09:15:51.796Z,21.35
2024-03-29T09:18:29.660Z,21.57
2024-03-29T09:21:12.411Z,21.69
2024-03-29T09:23:54.219Z,21.81
2024-03-29T09:26:31.135Z,21.64
2024-03-29T09:29:09.302Z,21.65
2024-03-29T09:31:46.075Z,21.54
2024-03-29T09:34:24.591Z,21.17
2024-03-29T09:37:01.536Z,21.07
2024-03-29T09:39:39.488Z,21.09
2024-03-29T09:42:20.939Z,21.24
2024-03-29T09:44:59.718Z,20.79
2024-03-29T09:47:38.028Z,20.85
2024-03-29T09:50:15.998Z,21.14
2024-03-29T09:52:54.570Z,21.20
2024-03-29T09:55:32.511Z,20.93
2024-03-29T09:58:02.387Z,20.53
2024-03-29T10:00:38.796Z,20.50
2024-03-29T10:03:20.412Z,20.25
2024-03-29T10:05:58.435Z,20.11
2024-03-29T10:08:35.892Z,20.09
2024-03-29T10:11:13.260Z,20.10
2024-03-29T10:13:50.654Z,20.33
2024-03-29T10:16:27.708Z,20.31
2024-03-29T10:19:08.998Z,19.98
2024-03-29T10:21:45.627Z,19.50
2024-03-29T10:24:22.676Z,19.36
2024-03-29T10:26:59.411Z,19.64
2024-03-29T10:29:36.201Z,19.65
2024-03-29T10:32:06.292Z,19.65
2024-03-29T10:34:40.122Z,19.48
2024-03-29T10:37:28.466Z,19.47
2024-03-29T10:40:04.990Z,19.41
2024-03-29T10:42:42.081Z,19.56
2024-03-29T10:45:19.242Z,19.28
2024-03-29T10:47:55.890Z,19.05
2024-03-29T10:50:33.649Z,19.01
2024-03-29T10:53:12.488Z,19.03
2024-03-29T10:55:49.314Z,19.13
2024-03-29T10:58:32.970Z,19.02
2024-03-29T11:01:11.084Z,18.77
2024-03-29T11:04:04.344Z,18.83
2024-03-29T11:06:42.176Z,18.67
2024-03-29T11:09:21.420Z,18.78
2024-03-29T11:12:00.230Z,18.89
2024-03-29T11:15:00.300Z,18.89
2024-03-29T11:17:36.761Z,18.83
2024-03-29T11:20:17.547Z,18.67
2024-03-29T11:22:55.785Z,18.55
2024-03-29T11:25:47.086Z,18.27
2024-03-29T11:28:39.030Z,18.31
2024-03-29T11:31:15.701Z,18.32
2024-03-29T11:33:55.259Z,18.46
2024-03-29T11:36:37.521Z,18.52
2024-03-29T11:39:22.970Z,18.56
2024-03-29T11:42:02.697Z,18.67
2024-03-29T11:44:39.756Z,18.74
2024-03-29T11:47:19.735Z,18.66
2024-03-29T11:50:02.547Z,18.61
2024-03-29T11:52:39.835Z,18.47
2024-03-29T11:55:17.217Z,18.27
2024-03-29T11:57:54.398Z,18.14
2024-03-29T12:00:31.784Z,18.19
2024-03-29T12:03:09.867Z,18.22
2024-03-29T12:05:47.836Z,18.22
2024-03-29T12:08:25.507Z,18.27
2024-03-29T12:11:06.504Z,18.43
2024-03-29T12:13:43.610Z,18.42
2024-03-29T12:16:21.202Z,18.55
2024-03-29T12:18:58.617Z,18.57
2024-03-29T12:21:28.125Z,18.38
2024-03-29T12:24:03.725Z,18.35
2024-03-29T12:26:41.468Z,18.43
2024-03-29T12:29:19.337Z,18.65
2024-03-29T12:32:05.765Z,18.85
2024-03-29T12:34:42.825Z,18.89
2024-03-29T12:37:21.047Z,18.86
2024-03-29T12:39:59.001Z,18.86
2024-03-29T12:42:36.267Z,19.05
2024-03-29T12:45:13.778Z,19.09
2024-03-29T12:47:53.791Z,19.17
2024-03-29T12:50:37.292Z,19.00
2024-03-29T12:53:18.804Z,18.76
2024-03-29T12:55:55.822Z,18.47
2024-03-29T12:58:32.286Z,18.49
2024-03-29T13:01:11.185Z,18.49
2024-03-29T13:03:47.895Z,18.51
2024-03-29T13:06:24.372Z,18.65
2024-03-29T13:09:00.981Z,18.80
2024-03-29T13:11:31.798Z,19.01
2024-03-29T13:14:06.522Z,19.01
2024-03-29T13:16:44.016Z,19.03
2024-03-29T13:19:21.044Z,19.00
2024-03-29T13:22:00.210Z,19.05
2024-03-29T13:24:38.000Z,19.04
2024-03-29T13:27:15.259Z,19.06
2024-03-29T13:29:54.060Z,19.04
2024-03-29T13:32:33.814Z,18.96
2024-03-29T13:35:13.473Z,18.97
2024-03-29T13:37:50.813Z,19.08
2024-03-29T13:40:28.299Z,19.18
2024-03-29T13:43:06.005Z,19.20
2024-03-29T13:45:42.874Z,19.15
2024-03-29T13:48:20.021Z,19.00
2024-03-29T13:50:51.622Z,18.99
2024-03-29T13:53:26.043Z,18.87
2024-03-29T13:56:04.615Z,18.87
2024-03-29T13:58:41.195Z,18.83
2024-03-29T14:01:17.958Z,18.73
2024-03-29T14:03:55.532Z,18.58
2024-03-29T14:06:32.064Z,18.57
2024-03-29T14:09:09.716Z,18.64
2024-03-29T14:11:48.090Z,18.63
2024-03-29T14:14:24.039Z,18.69
2024-03-29T14:17:05.495Z,18.81
2024-03-29T14:19:42.935Z,18.80
2024-03-29T14:22:24.499Z,18.74
2024-03-29T14:25:01.663Z,18.61
2024-03-29T14:27:32.319Z,18.50
2024-03-29T14:30:07.150Z,18.37
2024-03-29T14:32:57.809Z,18.47
2024-03-29T14:35:43.113Z,18.37
2024-03-29T14:38:21.804Z,18.29
2024-03-29T14:40:59.415Z,18.19
2024-03-29T14:43:29.307Z,18.16
2024-03-29T14:46:06.232Z,18.17
2024-03-29T14:48:44.765Z,18.22
2024-03-29T14:51:22.798Z,18.15
2024-03-29T14:53:59.340Z,18.15
2024-03-29T14:56:36.246Z,18.28
2024-03-29T14:59:13.884Z,18.32
2024-03-29T15:01:51.731Z,18.26
2024-03-29T15:04:28.998Z,18.25
2024-03-29T15:07:07.561Z,18.18
2024-03-29T15:09:44.811Z,18.15
2024-03-29T15:12:22.002Z,18.06
2024-03-29T15:14:51.832Z,18.02
2024-03-29T15:17:28.331Z,17.99
2024-03-29T15:20:06.696Z,18.01
2024-03-29T15:22:46.940Z,17.98
2024-03-29T15:25:23.722Z,17.98
2024-03-29T15:28:11.716Z,18.01
2024-03-29T15:30:58.850Z,18.06
2024-03-29T15:33:29.163Z,18.05
2024-03-29T15:36:06.502Z,18.09
2024-03-29T15:38:44.642Z,18.14
2024-03-29T15:41:21.971Z,18.11
2024-03-29T15:43:59.933Z,18.04
2024-03-29T15:46:38.089Z,17.99
2024-03-29T15:49:15.110Z,17.88
2024-03-29T15:51:51.658Z,17.80
2024-03-29T15:54:28.756Z,17.66
2024-03-29T15:57:05.916Z,17.41
2024-03-29T15:59:45.592Z,17.44
2024-03-29T16:02:23.094Z,17.40
2024-03-29T16:04:54.697Z,17.28
2024-03-29T16:07:29.926Z,17.23
2024-03-29T16:10:07.691Z,17.17
2024-03-29T16:12:45.255Z,17.04
2024-03-29T16:15:22.653Z,17.04
2024-03-29T16:17:59.726Z,16.98
2024-03-29T16:20:37.013Z,16.92
2024-03-29T16:23:15.999Z,16.88
2024-03-29T16:25:59.303Z,16.84
2024-03-29T16:28:36.612Z,16.81
2024-03-29T16:31:14.187Z,16.73
2024-03-29T16:33:51.327Z,16.71
2024-03-29T16:36:28.318Z,16.66
2024-03-29T16:39:05.694Z,16.62
2024-03-29T16:41:47.481Z,16.58
2024-03-29T16:44:26.292Z,16.54
2024-03-29T16:47:04.177Z,16.52
2024-03-29T16:49:33.952Z,16.48
2024-03-29T16:52:11.288Z,16.38
2024-03-29T16:54:48.492Z,16.31
2024-03-29T16:57:25.910Z,16.24
2024-03-29T17:00:04.318Z,16.22
2024-03-29T17:02:41.432Z,16.15
2024-03-29T17:05:18.964Z,16.07
2024-03-29T17:07:56.404Z,16.01
2024-03-29T17:10:34.365Z,15.96
2024-03-29T17:13:12.811Z,15.89
2024-03-29T17:15:54.076Z,15.82
2024-03-29T17:18:31.109Z,15.76
2024-03-29T17:21:10.401Z,15.69
2024-03-29T17:23:48.668Z,15.62
2024-03-29T17:26:27.384Z,15.56
2024-03-29T17:29:06.485Z,15.50
2024-03-29T17:31:57.328Z,15.41
2024-03-29T17:34:43.051Z,15.28
2024-03-29T17:37:20.531Z,15.28
2024-03-29T17:39:57.416Z,15.21
2024-03-29T17:42:34.557Z,15.17
2024-03-29T17:45:13.104Z,15.10
2024-03-29T17:47:50.952Z,15.06
2024-03-29T17:50:29.778Z,15.00
2024-03-29T17:53:09.392Z,14.94
2024-03-29T17:55:40.389Z,14.87
2024-03-29T17:58:14.067Z,14.79
2024-03-29T18:00:53.580Z,14.71
2024-03-29T18:03:32.199Z,14.65
2024-03-29T18:06:11.304Z,14.61
2024-03-29T18:08:49.952Z,14.54
2024-03-29T18:11:28.892Z,14.50
2024-03-29T18:14:09.446Z,14.42
2024-03-29T18:16:46.144Z,14.38
2024-03-29T18:19:23.812Z,14.31
2024-03-29T18:22:02.637Z,14.25
2024-03-29T18:24:40.247Z,14.19
2024-03-29T18:27:16.580Z,14.07
2024-03-29T18:29:54.628Z,14.06
2024-03-29T18:32:32.814Z,14.00
2024-03-29T18:35:13.457Z,13.90
2024-03-29T18:37:51.759Z,13.86
2024-03-29T18:40:29.402Z,13.78
2024-03-29T18:43:08.965Z,13.72
2024-03-29T18:45:48.708Z,13.68
2024-03-29T18:48:19.072Z,13.61
2024-03-29T18:50:56.920Z,13.55
2024-03-29T18:53:37.263Z,13.46
2024-03-29T18:56:13.707Z,13.43
2024-03-29T18:58:52.579Z,13.41
2024-03-29T19:01:33.943Z,13.31
2024-03-29T19:04:12.758Z,13.32
2024-03-29T19:06:52.592Z,13.28
2024-03-29T19:09:30.712Z,13.25
2024-03-29T19:12:09.293Z,13.20
2024-03-29T19:14:47.844Z,13.14
2024-03-29T19:17:25.799Z,13.11
2024-03-29T19:20:04.476Z,13.09
2024-03-29T19:22:42.540Z,13.08
2024-03-29T19:25:21.928Z,13.09
2024-03-29T19:28:00.672Z,13.09
2024-03-29T19:30:38.642Z,13.10
2024-03-29T19:33:17.102Z,13.11
2024-03-29T19:35:55.106Z,13.14
2024-03-29T19:38:33.073Z,13.13
2024-03-29T19:41:12.851Z,13.12
2024-03-29T19:43:50.982Z,13.13
2024-03-29T19:46:20.963Z,13.16
2024-03-29T19:48:57.114Z,13.17
2024-03-29T19:51:35.894Z,13.16
2024-03-29T19:54:14.254Z,13.15
2024-03-29T19:56:52.608Z,13.14
2024-03-29T19:59:31.232Z,13.11
2024-03-29T20:02:10.571Z,13.10
2024-03-29T20:04:49.107Z,13.10
2024-03-29T20:07:27.674Z,13.08
2024-03-29T20:10:05.292Z,13.07
2024-03-29T20:12:43.089Z,13.03
2024-03-29T20:15:20.887Z,12.98
2024-03-29T20:17:59.343Z,12.94
2024-03-29T20:20:37.016Z,12.81
2024-03-29T20:23:15.711Z,12.81
2024-03-29T20:25:53.586Z,12.70
2024-03-29T20:28:31.490Z,12.68
2024-03-29T20:31:06.849Z,12.60
2024-03-29T20:33:38.358Z,12.54
2024-03-29T20:36:15.883Z,12.51
2024-03-29T20:38:57.672Z,12.46
2024-03-29T20:41:35.543Z,12.41
2024-03-29T20:44:14.227Z,12.37
2024-03-29T20:46:51.929Z,12.33
2024-03-29T20:49:29.349Z,12.27
2024-03-29T20:52:08.244Z,12.23
2024-03-29T20:54:46.163Z,12.16
2024-03-29T20:57:24.564Z,12.11
2024-03-29T21:00:02.853Z,12.08
2024-03-29T21:02:58.750Z,12.05
2024-03-29T21:05:41.397Z,11.99
2024-03-29T21:08:19.235Z,11.94
2024-03-29T21:10:57.210Z,11.88
2024-03-29T21:13:35.169Z,11.81
2024-03-29T21:16:13.911Z,11.78
2024-03-29T21:18:51.549Z,11.71
2024-03-29T21:21:31.877Z,11.65
2024-03-29T21:24:10.295Z,11.63
2024-03-29T21:26:47.626Z,11.60
2024-03-29T21:29:25.246Z,11.49
2024-03-29T21:32:02.761Z,11.53
2024-03-29T21:34:40.390Z,11.49
2024-03-29T21:37:18.504Z,11.44
2024-03-29T21:39:56.350Z,11.39
2024-03-29T21:42:33.841Z,11.35
2024-03-29T21:45:04.164Z,11.31
2024-03-29T21:47:40.204Z,11.26
2024-03-29T21:50:18.700Z,11.22
2024-03-29T21:52:58.723Z,11.18
2024-03-29T21:55:36.925Z,11.14
2024-03-29T21:58:14.562Z,11.10
2024-03-29T22:00:52.536Z,11.09
2024-03-29T22:03:30.125Z,11.08
2024-03-29T22:06:07.982Z,11.05
2024-03-29T22:08:45.731Z,11.02
2024-03-29T22:11:23.198Z,11.01
2024-03-29T22:14:01.213Z,10.99
2024-03-29T22:16:38.620Z,10.97
2024-03-29T22:19:08.980Z,10.94
2024-03-29T22:21:41.464Z,10.92
2024-03-29T22:24:18.975Z,10.91
2024-03-29T22:26:56.668Z,10.89
2024-03-29T22:29:34.938Z,10.82
2024-03-29T22:32:10.034Z,10.80
2024-03-29T22:34:47.905Z,10.77
2024-03-29T22:37:25.346Z,10.73
2024-03-29T22:40:03.571Z,10.71
2024-03-29T22:42:41.023Z,10.66
2024-03-29T22:45:18.794Z,10.65
2024-03-29T22:47:57.616Z,10.64
2024-03-29T22:50:35.256Z,10.61
2024-03-29T22:53:08.295Z,10.61
2024-03-29T22:55:42.703Z,10.53
2024-03-29T22:58:20.821Z,10.54
2024-03-29T23:00:59.360Z,10.52
2024-03-29T23:03:37.762Z,10.51
2024-03-29T23:06:16.647Z,10.50
2024-03-29T23:08:54.434Z,10.48
2024-03-29T23:11:31.962Z,10.49
2024-03-29T23:14:11.016Z,10.49
2024-03-29T23:16:49.166Z,10.48
2024-03-29T23:19:26.721Z,10.50
2024-03-29T23:22:04.912Z,10.52
2024-03-29T23:24:42.271Z,10.53
2024-03-29T23:27:20.099Z,10.53
2024-03-29T23:29:59.428Z,10.54
2024-03-29T23:32:37.680Z,10.55
2024-03-29T23:35:16.624Z,10.53
2024-03-29T23:37:54.937Z,10.51
2024-03-29T23:40:32.622Z,10.50
2024-03-29T23:43:11.396Z,10.49
2024-03-29T23:45:48.824Z,10.47
2024-03-29T23:48:26.414Z,10.46
2024-03-29T23:51:04.694Z,10.44
2024-03-29T23:53:42.446Z,10.42
2024-03-29T23:56:21.242Z,10.41
2024-03-29T23:59:06.794Z,10.42
